Cylinder, Iowa
Current Conditions -  °F | °C
As of 4:55 PM on Tuesday 27 Jan 2015 (Local Time) from KAXA Reporting Station
Overcast Overcast  
Wind Chill: 31°   Ceiling: 1600
Heat Index: 37°   Visibility: 10mi
Dew Point: 34°   Wind: 9mph
Humidity: 87%   Direction: 130°SE
Pressure: 30.11"   Gusts: NA
Location:  43.09°N, 94.55°W
Report Text: KAXA 272255Z AUTO 13008KT 10SM OVC016 03/01 A3011 RMK AO2
Loading
Personal Weather Stations






























Interactive Weather Map New forecast layout! Learn more

10-Day Weather Forecast

Advertisements
Track Severe Weather on mobile